createdAt,value
2018-02-22T00:01:30.349Z,1.80
2018-02-22T00:03:58.466Z,1.80
2018-02-22T00:06:26.579Z,1.72
2018-02-22T00:08:54.709Z,1.76
2018-02-22T00:11:22.841Z,1.76
2018-02-22T00:13:50.969Z,1.77
2018-02-22T00:16:19.072Z,1.70
2018-02-22T00:18:47.198Z,1.72
2018-02-22T00:21:15.306Z,1.73
2018-02-22T00:23:43.421Z,1.75
2018-02-22T00:26:11.542Z,1.75
2018-02-22T00:28:39.651Z,1.63
2018-02-22T00:31:07.762Z,1.53
2018-02-22T00:33:35.895Z,1.63
2018-02-22T00:36:03.992Z,1.55
2018-02-22T00:38:32.226Z,1.62
2018-02-22T00:41:00.361Z,1.70
2018-02-22T00:43:28.474Z,1.58
2018-02-22T00:45:56.589Z,1.48
2018-02-22T00:48:24.687Z,1.56
2018-02-22T00:50:52.836Z,1.50
2018-02-22T00:53:20.960Z,1.48
2018-02-22T00:55:49.071Z,1.63
2018-02-22T00:58:17.186Z,1.51
2018-02-22T01:00:45.300Z,1.43
2018-02-22T01:03:13.428Z,1.49
2018-02-22T01:05:41.553Z,1.50
2018-02-22T01:08:09.654Z,1.46
2018-02-22T01:10:37.782Z,1.53
2018-02-22T01:13:05.901Z,1.42
2018-02-22T01:15:34.026Z,1.42
2018-02-22T01:18:02.125Z,1.42
2018-02-22T01:20:30.253Z,1.36
2018-02-22T01:22:58.384Z,1.30
2018-02-22T01:25:26.505Z,1.35
2018-02-22T01:27:54.631Z,1.26
2018-02-22T01:30:22.753Z,1.54
2018-02-22T01:32:50.870Z,1.31
2018-02-22T01:35:18.983Z,1.39
2018-02-22T01:37:47.127Z,1.39
2018-02-22T01:40:15.236Z,1.56
2018-02-22T01:42:43.360Z,1.48
2018-02-22T01:45:11.490Z,1.51
2018-02-22T01:47:39.599Z,1.35
2018-02-22T01:50:07.743Z,1.47
2018-02-22T01:52:35.869Z,1.47
2018-02-22T01:55:03.993Z,1.50
2018-02-22T01:57:32.128Z,1.52
2018-02-22T02:00:00.272Z,1.47
2018-02-22T02:02:28.388Z,1.44
2018-02-22T02:04:56.521Z,1.66
2018-02-22T02:07:24.634Z,1.48
2018-02-22T02:09:52.752Z,1.54
2018-02-22T02:12:20.887Z,1.33
2018-02-22T02:14:49.006Z,1.46
2018-02-22T02:17:17.205Z,1.60
2018-02-22T02:19:45.331Z,1.51
2018-02-22T02:22:13.576Z,1.44
2018-02-22T02:24:41.866Z,1.47
2018-02-22T02:27:10.033Z,1.58
2018-02-22T02:29:38.177Z,1.54
2018-02-22T02:32:06.316Z,1.46
2018-02-22T02:34:34.441Z,1.49
2018-02-22T02:37:02.582Z,1.47
2018-02-22T02:39:30.680Z,1.30
2018-02-22T02:41:58.845Z,1.38
2018-02-22T02:44:26.962Z,1.53
2018-02-22T02:46:55.124Z,1.53
2018-02-22T02:49:23.285Z,1.35
2018-02-22T02:51:51.409Z,1.40
2018-02-22T02:54:19.526Z,1.48
2018-02-22T02:56:47.664Z,1.32
2018-02-22T02:59:15.789Z,1.37
2018-02-22T03:01:43.907Z,1.48
2018-02-22T03:04:12.019Z,1.37
2018-02-22T03:06:40.135Z,1.35
2018-02-22T03:09:08.250Z,1.42
2018-02-22T03:11:36.381Z,1.43
2018-02-22T03:14:04.521Z,1.34
2018-02-22T03:16:32.631Z,1.46
2018-02-22T03:19:00.744Z,1.44
2018-02-22T03:21:28.870Z,1.55
2018-02-22T03:23:57.001Z,1.31
2018-02-22T03:26:25.123Z,1.50
2018-02-22T03:28:53.254Z,1.32
2018-02-22T03:31:21.381Z,1.28
2018-02-22T03:33:49.483Z,1.39
2018-02-22T03:36:17.610Z,1.36
2018-02-22T03:38:45.745Z,1.23
2018-02-22T03:41:13.869Z,1.10
2018-02-22T03:43:42.015Z,1.30
2018-02-22T03:46:10.142Z,1.25
2018-02-22T03:48:38.557Z,1.04
2018-02-22T03:51:06.656Z,1.20
2018-02-22T03:53:34.850Z,1.22
2018-02-22T03:56:02.982Z,1.05
2018-02-22T03:58:31.095Z,1.03
2018-02-22T04:00:59.220Z,1.20
2018-02-22T04:03:27.348Z,1.18
2018-02-22T04:05:55.482Z,1.16
2018-02-22T04:08:23.609Z,1.01
2018-02-22T04:10:51.725Z,1.24
2018-02-22T04:13:20.334Z,1.13
2018-02-22T04:15:48.441Z,1.10
2018-02-22T04:18:18.463Z,1.17
2018-02-22T04:20:46.575Z,1.36
2018-02-22T04:23:14.707Z,1.27
2018-02-22T04:25:42.829Z,1.31
2018-02-22T04:28:10.931Z,1.14
2018-02-22T04:30:39.053Z,1.09
2018-02-22T04:33:07.172Z,1.29
2018-02-22T04:35:35.316Z,1.28
2018-02-22T04:38:03.436Z,1.25
2018-02-22T04:40:31.539Z,1.01
2018-02-22T04:42:59.685Z,1.05
2018-02-22T04:45:27.790Z,1.15
2018-02-22T04:47:55.946Z,1.19
2018-02-22T04:50:24.066Z,1.10
2018-02-22T04:52:52.173Z,1.28
2018-02-22T04:55:20.284Z,1.08
2018-02-22T04:57:48.386Z,1.11
2018-02-22T05:00:16.503Z,0.88
2018-02-22T05:02:44.607Z,1.07
2018-02-22T05:05:12.719Z,1.15
2018-02-22T05:07:40.842Z,1.13
2018-02-22T05:10:09.116Z,1.15
2018-02-22T05:12:37.215Z,0.87
2018-02-22T05:15:05.373Z,1.00
2018-02-22T05:17:33.494Z,0.95
2018-02-22T05:20:01.623Z,0.94
2018-02-22T05:22:29.749Z,1.10
2018-02-22T05:24:57.890Z,1.17
2018-02-22T05:27:25.993Z,0.90
2018-02-22T05:29:54.137Z,0.85
2018-02-22T05:32:23.154Z,0.76
2018-02-22T05:34:51.283Z,0.97
2018-02-22T05:37:22.446Z,1.00
2018-02-22T05:39:50.575Z,1.20
2018-02-22T05:42:18.698Z,1.00
2018-02-22T05:44:46.808Z,1.02
2018-02-22T05:47:14.934Z,1.00
2018-02-22T05:49:43.061Z,0.89
2018-02-22T05:52:11.167Z,1.11
2018-02-22T05:54:39.274Z,0.96
2018-02-22T05:57:07.437Z,2.66
2018-02-22T05:59:35.539Z,2.12
2018-02-22T06:02:03.674Z,1.15
2018-02-22T06:04:31.798Z,0.94
2018-02-22T06:06:59.910Z,1.10
2018-02-22T06:09:28.045Z,1.03
2018-02-22T06:11:56.168Z,0.84
2018-02-22T06:14:24.301Z,0.96
2018-02-22T06:16:52.424Z,0.78
2018-02-22T06:19:20.580Z,0.74
2018-02-22T06:21:48.702Z,0.76
2018-02-22T06:24:16.854Z,0.97
2018-02-22T06:26:44.974Z,0.63
2018-02-22T06:29:13.110Z,0.61
2018-02-22T06:31:41.265Z,0.79
2018-02-22T06:34:09.395Z,0.81
2018-02-22T06:36:37.509Z,0.88
2018-02-22T06:39:05.646Z,0.83
2018-02-22T06:41:33.766Z,0.85
2018-02-22T06:44:01.902Z,0.99
2018-02-22T06:46:30.011Z,0.95
2018-02-22T06:48:58.134Z,0.94
2018-02-22T06:51:26.276Z,0.79
2018-02-22T06:53:54.375Z,0.73
2018-02-22T06:56:22.498Z,0.89
2018-02-22T06:58:50.633Z,0.88
2018-02-22T07:01:18.767Z,0.85
2018-02-22T07:03:46.874Z,0.66
2018-02-22T07:06:18.300Z,1.02
2018-02-22T07:08:46.420Z,0.88
2018-02-22T07:11:14.552Z,1.06
2018-02-22T07:13:42.685Z,1.15
2018-02-22T07:16:10.797Z,1.19
2018-02-22T07:18:38.916Z,1.21
2018-02-22T07:21:07.072Z,1.19
2018-02-22T07:23:35.210Z,1.28
2018-02-22T07:26:03.332Z,1.32
2018-02-22T07:28:31.485Z,1.37
2018-02-22T07:30:59.593Z,1.26
2018-02-22T07:33:27.758Z,1.21
2018-02-22T07:35:55.890Z,1.45
2018-02-22T07:38:24.011Z,1.62
2018-02-22T07:40:52.254Z,1.85
2018-02-22T07:43:20.385Z,2.27
2018-02-22T07:45:48.503Z,2.14
2018-02-22T07:48:16.623Z,2.03
2018-02-22T07:50:44.745Z,1.91
2018-02-22T07:53:12.865Z,2.76
2018-02-22T07:55:40.997Z,3.58
2018-02-22T07:58:09.120Z,3.83
2018-02-22T08:00:37.260Z,3.38
2018-02-22T08:03:05.378Z,3.56
2018-02-22T08:05:33.492Z,2.87
2018-02-22T08:08:01.616Z,3.67
2018-02-22T08:10:29.736Z,3.55
2018-02-22T08:12:57.871Z,4.26
2018-02-22T08:15:26.022Z,4.27
2018-02-22T08:17:54.195Z,4.26
2018-02-22T08:20:22.330Z,4.13
2018-02-22T08:22:50.471Z,4.49
2018-02-22T08:25:18.587Z,4.99
2018-02-22T08:27:46.729Z,4.31
2018-02-22T08:30:14.880Z,4.85
2018-02-22T08:32:43.071Z,4.73
2018-02-22T08:35:11.172Z,4.71
2018-02-22T08:37:39.299Z,4.34
2018-02-22T08:40:07.605Z,4.80
2018-02-22T08:42:35.938Z,5.31
2018-02-22T08:45:04.055Z,5.01
2018-02-22T08:47:32.181Z,4.72
2018-02-22T08:50:00.294Z,5.52
2018-02-22T08:52:31.504Z,5.52
2018-02-22T08:54:59.622Z,5.67
2018-02-22T08:57:27.741Z,5.73
2018-02-22T08:59:55.864Z,5.60
2018-02-22T09:02:23.981Z,5.13
2018-02-22T09:04:52.113Z,4.65
2018-02-22T09:07:20.244Z,4.94
2018-02-22T09:09:48.396Z,4.56
2018-02-22T09:12:16.524Z,4.13
2018-02-22T09:14:44.630Z,4.01
2018-02-22T09:17:12.764Z,4.17
2018-02-22T09:19:40.906Z,4.49
2018-02-22T09:22:09.022Z,4.39
2018-02-22T09:24:37.164Z,4.21
2018-02-22T09:27:05.281Z,4.73
2018-02-22T09:29:33.384Z,4.95
2018-02-22T09:32:01.535Z,5.02
2018-02-22T09:34:29.640Z,4.51
2018-02-22T09:36:57.777Z,5.08
2018-02-22T09:39:25.896Z,5.17
2018-02-22T09:41:54.030Z,4.69
2018-02-22T09:44:22.140Z,4.93
2018-02-22T09:46:50.275Z,5.41
2018-02-22T09:49:18.376Z,5.39
2018-02-22T09:51:46.538Z,5.39
2018-02-22T09:54:14.655Z,5.51
2018-02-22T09:56:45.983Z,5.24
2018-02-22T09:59:14.133Z,5.25
2018-02-22T10:01:42.321Z,5.33
2018-02-22T10:04:10.412Z,5.31
2018-02-22T10:06:38.539Z,5.23
2018-02-22T10:09:06.659Z,5.37
2018-02-22T10:11:34.762Z,5.29
2018-02-22T10:14:02.907Z,5.76
2018-02-22T10:16:31.043Z,5.56
2018-02-22T10:18:59.223Z,4.97
2018-02-22T10:21:27.361Z,6.01
2018-02-22T10:23:55.501Z,5.88
2018-02-22T10:26:23.618Z,5.80
2018-02-22T10:28:51.752Z,5.80
2018-02-22T10:31:23.088Z,5.95
2018-02-22T10:33:51.239Z,5.78
2018-02-22T10:36:19.388Z,5.62
2018-02-22T10:38:47.521Z,5.62
2018-02-22T10:41:15.678Z,5.68
2018-02-22T10:43:43.899Z,5.46
2018-02-22T10:46:12.121Z,4.99
2018-02-22T10:48:40.236Z,4.80
2018-02-22T10:51:08.400Z,5.28
2018-02-22T10:53:36.529Z,5.29
2018-02-22T10:56:06.577Z,5.61
2018-02-22T10:58:34.720Z,6.14
2018-02-22T11:01:08.373Z,6.30
2018-02-22T11:03:37.420Z,6.48
2018-02-22T11:06:05.551Z,6.92
2018-02-22T11:08:33.672Z,6.47
2018-02-22T11:11:01.796Z,6.45
2018-02-22T11:13:29.958Z,6.14
2018-02-22T11:16:01.072Z,6.25
2018-02-22T11:18:29.204Z,6.23
2018-02-22T11:20:57.341Z,5.93
2018-02-22T11:23:25.465Z,6.14
2018-02-22T11:25:53.600Z,6.26
2018-02-22T11:28:21.717Z,6.25
2018-02-22T11:30:49.934Z,6.11
2018-02-22T11:33:18.050Z,6.54
2018-02-22T11:35:46.171Z,6.41
2018-02-22T11:38:14.305Z,7.18
2018-02-22T11:40:42.417Z,6.63
2018-02-22T11:43:10.584Z,6.83
2018-02-22T11:45:38.715Z,6.42
2018-02-22T11:48:06.857Z,6.66
2018-02-22T11:50:34.988Z,6.37
2018-02-22T11:53:03.118Z,6.62
2018-02-22T11:55:31.223Z,5.98
2018-02-22T11:57:59.343Z,6.47
2018-02-22T12:00:27.474Z,6.73
2018-02-22T12:02:55.596Z,6.21
2018-02-22T12:05:23.717Z,6.16
2018-02-22T12:07:51.838Z,6.25
2018-02-22T12:10:23.180Z,6.55
2018-02-22T12:12:51.283Z,6.87
2018-02-22T12:15:19.418Z,6.47
2018-02-22T12:17:47.536Z,6.22
2018-02-22T12:20:15.656Z,6.42
2018-02-22T12:22:43.806Z,6.39
2018-02-22T12:25:11.903Z,6.58
2018-02-22T12:27:40.029Z,6.68
2018-02-22T12:30:08.179Z,6.83
2018-02-22T12:32:36.279Z,6.60
2018-02-22T12:35:05.337Z,6.99
2018-02-22T12:37:33.459Z,6.77
2018-02-22T12:40:01.579Z,6.64
2018-02-22T12:42:29.750Z,6.83
2018-02-22T12:44:57.859Z,6.94
2018-02-22T12:47:25.959Z,7.42
2018-02-22T12:49:54.091Z,7.73
2018-02-22T12:52:22.278Z,7.44
2018-02-22T12:54:50.399Z,7.27
2018-02-22T12:57:18.505Z,7.61
2018-02-22T12:59:46.637Z,7.55
2018-02-22T13:02:14.759Z,7.66
2018-02-22T13:04:42.870Z,7.48
2018-02-22T13:07:10.996Z,8.05
2018-02-22T13:09:39.097Z,8.39
2018-02-22T13:12:07.350Z,6.91
2018-02-22T13:14:35.477Z,7.47
2018-02-22T13:17:03.587Z,7.95
2018-02-22T13:19:31.706Z,7.72
2018-02-22T13:21:59.801Z,7.36
2018-02-22T13:24:27.908Z,7.33
2018-02-22T13:26:56.033Z,7.33
2018-02-22T13:29:24.165Z,7.32
2018-02-22T13:31:52.913Z,7.08
2018-02-22T13:34:35.910Z,6.87
2018-02-22T13:37:15.985Z,7.08
2018-02-22T13:39:44.102Z,6.70
2018-02-22T13:42:12.239Z,6.88
2018-02-22T13:44:52.322Z,6.61
2018-02-22T13:47:20.455Z,6.78
2018-02-22T13:50:00.560Z,6.46
2018-02-22T13:52:28.745Z,6.60
2018-02-22T13:54:56.857Z,6.45
2018-02-22T13:57:24.979Z,6.59
2018-02-22T13:59:53.091Z,6.85
2018-02-22T14:02:24.599Z,6.68
2018-02-22T14:04:52.720Z,6.29
2018-02-22T14:07:20.836Z,6.68
2018-02-22T14:09:48.942Z,6.27
2018-02-22T14:12:17.065Z,6.28
2018-02-22T14:14:45.195Z,6.45
2018-02-22T14:17:13.363Z,6.29
2018-02-22T14:19:41.436Z,6.44
2018-02-22T14:22:09.539Z,6.53
2018-02-22T14:24:37.644Z,6.46
2018-02-22T14:27:05.791Z,6.53
2018-02-22T14:29:33.888Z,6.43
2018-02-22T14:32:01.991Z,6.25
2018-02-22T14:34:30.633Z,6.25
2018-02-22T14:36:58.730Z,6.10
2018-02-22T14:39:26.845Z,6.10
2018-02-22T14:41:54.978Z,5.94
2018-02-22T14:44:23.073Z,6.22
2018-02-22T14:46:51.187Z,6.40
2018-02-22T14:49:19.309Z,6.08
2018-02-22T14:51:47.450Z,5.98
2018-02-22T14:54:15.565Z,5.95
2018-02-22T14:56:43.664Z,6.01
2018-02-22T14:59:13.701Z,6.03
2018-02-22T15:01:41.805Z,6.00
2018-02-22T15:04:09.908Z,6.09
2018-02-22T15:06:38.048Z,6.32
2018-02-22T15:09:06.159Z,6.02
2018-02-22T15:11:34.300Z,5.86
2018-02-22T15:14:02.465Z,5.94
2018-02-22T15:16:30.573Z,5.91
2018-02-22T15:18:58.689Z,5.65
2018-02-22T15:21:26.809Z,5.59
2018-02-22T15:23:55.055Z,5.60
2018-02-22T15:26:23.178Z,5.74
2018-02-22T15:28:51.300Z,5.77
2018-02-22T15:31:19.700Z,5.92
2018-02-22T15:33:47.833Z,5.75
2018-02-22T15:36:15.970Z,5.90
2018-02-22T15:38:44.092Z,5.60
2018-02-22T15:41:12.204Z,5.43
2018-02-22T15:43:40.342Z,5.47
2018-02-22T15:46:08.479Z,5.51
2018-02-22T15:48:36.697Z,5.51
2018-02-22T15:51:04.802Z,5.44
2018-02-22T15:53:32.936Z,5.66
2018-02-22T15:56:01.045Z,5.62
2018-02-22T15:58:29.176Z,5.67
2018-02-22T16:00:57.301Z,5.42
2018-02-22T16:03:25.432Z,5.38
2018-02-22T16:05:53.544Z,5.20
2018-02-22T16:08:21.650Z,5.27
2018-02-22T16:10:49.776Z,5.18
2018-02-22T16:13:18.014Z,5.17
2018-02-22T16:15:46.145Z,5.00
2018-02-22T16:18:14.331Z,5.05
2018-02-22T16:20:42.444Z,4.80
2018-02-22T16:23:10.573Z,5.11
2018-02-22T16:25:38.699Z,5.03
2018-02-22T16:28:06.825Z,5.07
2018-02-22T16:30:34.966Z,4.75
2018-02-22T16:33:03.114Z,4.94
2018-02-22T16:35:31.242Z,4.55
2018-02-22T16:37:59.374Z,4.50
2018-02-22T16:40:27.578Z,4.73
2018-02-22T16:42:55.682Z,4.38
2018-02-22T16:45:27.434Z,4.61
2018-02-22T16:47:55.564Z,4.53
2018-02-22T16:50:23.696Z,4.30
2018-02-22T16:52:51.806Z,4.31
2018-02-22T16:55:19.923Z,4.26
2018-02-22T16:57:51.228Z,4.19
2018-02-22T17:00:19.355Z,4.26
2018-02-22T17:02:47.490Z,4.28
2018-02-22T17:05:15.600Z,4.18
2018-02-22T17:07:43.739Z,3.98
2018-02-22T17:10:11.862Z,3.96
2018-02-22T17:12:39.982Z,4.05
2018-02-22T17:15:08.116Z,4.00
2018-02-22T17:17:45.216Z,3.79
2018-02-22T17:20:13.336Z,3.68
2018-02-22T17:22:41.439Z,3.63
2018-02-22T17:25:09.567Z,3.73
2018-02-22T17:27:43.325Z,3.76
2018-02-22T17:30:17.035Z,3.66
2018-02-22T17:32:45.229Z,3.62
2018-02-22T17:38:38.211Z,3.64
2018-02-22T17:41:06.346Z,3.50
2018-02-22T17:43:34.479Z,3.76
2018-02-22T17:46:02.591Z,3.60
2018-02-22T17:48:30.733Z,3.64
2018-02-22T17:50:58.906Z,3.48
2018-02-22T17:53:27.026Z,3.60
2018-02-22T17:55:55.277Z,3.56
2018-02-22T17:58:23.773Z,3.48
2018-02-22T18:01:03.742Z,3.65
2018-02-22T18:03:31.837Z,3.41
2018-02-22T18:05:59.949Z,3.25
2018-02-22T18:08:28.093Z,3.54
2018-02-22T18:10:56.218Z,3.59
2018-02-22T18:13:24.354Z,3.40
2018-02-22T18:15:52.460Z,3.34
2018-02-22T18:18:20.595Z,3.51
2018-02-22T18:20:48.733Z,3.28
2018-02-22T18:23:16.960Z,3.12
2018-02-22T18:25:45.154Z,3.16
2018-02-22T18:28:13.284Z,3.34
2018-02-22T18:30:41.430Z,3.41
2018-02-22T18:33:09.568Z,3.45
2018-02-22T18:35:37.785Z,3.42
2018-02-22T18:38:05.931Z,3.43
2018-02-22T18:40:39.631Z,3.27
2018-02-22T18:43:13.471Z,3.35
2018-02-22T18:45:41.581Z,3.19
2018-02-22T18:48:09.704Z,3.43
2018-02-22T18:50:37.828Z,3.36
2018-02-22T18:53:05.956Z,3.47
2018-02-22T18:55:34.068Z,3.36
2018-02-22T18:58:02.171Z,3.41
2018-02-22T19:00:30.397Z,3.11
2018-02-22T19:03:01.444Z,3.22
2018-02-22T19:05:33.252Z,3.07
2018-02-22T19:08:01.338Z,3.08
2018-02-22T19:10:29.453Z,3.14
2018-02-22T19:12:57.568Z,3.12
2018-02-22T19:15:25.687Z,2.91
2018-02-22T19:17:53.816Z,2.96
2018-02-22T19:20:21.941Z,3.06
2018-02-22T19:22:53.674Z,2.88
2018-02-22T19:25:21.808Z,3.02
2018-02-22T19:27:49.937Z,3.07
2018-02-22T19:30:18.035Z,3.01
2018-02-22T19:32:46.212Z,2.96
2018-02-22T19:35:14.333Z,3.01
2018-02-22T19:37:42.463Z,2.90
2018-02-22T19:40:10.569Z,2.89
2018-02-22T19:42:38.679Z,2.96
2018-02-22T19:45:06.818Z,3.03
2018-02-22T19:47:34.944Z,2.96
2018-02-22T19:50:03.065Z,2.86
2018-02-22T19:52:31.181Z,3.05
2018-02-22T19:54:59.326Z,2.84
2018-02-22T19:57:27.451Z,3.05
2018-02-22T19:59:55.599Z,3.00
2018-02-22T20:02:23.729Z,3.07
2018-02-22T20:04:51.856Z,3.06
2018-02-22T20:07:19.961Z,2.88
2018-02-22T20:09:48.076Z,2.86
2018-02-22T20:12:16.210Z,3.05
2018-02-22T20:14:44.328Z,2.89
2018-02-22T20:17:12.444Z,2.80
2018-02-22T20:19:40.563Z,2.82
2018-02-22T20:22:08.681Z,2.83
2018-02-22T20:24:36.813Z,2.98
2018-02-22T20:27:04.938Z,3.02
2018-02-22T20:29:33.057Z,2.68
2018-02-22T20:32:05.052Z,2.85
2018-02-22T20:34:33.181Z,2.88
2018-02-22T20:37:01.327Z,2.56
2018-02-22T20:39:29.459Z,2.71
2018-02-22T20:41:57.578Z,2.68
2018-02-22T20:44:25.693Z,2.65
2018-02-22T20:46:53.829Z,2.65
2018-02-22T20:49:21.973Z,2.80
2018-02-22T20:51:51.950Z,2.69
2018-02-22T20:54:20.089Z,2.65
2018-02-22T20:56:48.201Z,3.27
2018-02-22T20:59:17.063Z,2.69
2018-02-22T21:01:45.158Z,2.77
2018-02-22T21:04:14.176Z,2.66
2018-02-22T21:06:42.310Z,2.71
2018-02-22T21:09:10.462Z,2.66
2018-02-22T21:11:38.599Z,2.62
2018-02-22T21:14:06.721Z,2.79
2018-02-22T21:16:34.824Z,2.63
2018-02-22T21:19:02.958Z,2.57
2018-02-22T21:21:31.065Z,2.61
2018-02-22T21:23:59.196Z,2.64
2018-02-22T21:26:27.323Z,2.65
2018-02-22T21:28:55.435Z,2.63
2018-02-22T21:31:23.603Z,2.54
2018-02-22T21:33:51.721Z,2.50
2018-02-22T21:36:19.866Z,2.51
2018-02-22T21:38:47.962Z,2.59
2018-02-22T21:41:16.087Z,2.55
2018-02-22T21:43:44.223Z,2.33
2018-02-22T21:46:13.245Z,2.53
2018-02-22T21:48:41.390Z,2.44
2018-02-22T21:51:12.765Z,2.41
2018-02-22T21:53:40.909Z,2.38
2018-02-22T21:56:09.046Z,2.48
2018-02-22T21:58:37.145Z,2.54
2018-02-22T22:01:05.297Z,2.52
2018-02-22T22:03:33.408Z,2.36
2018-02-22T22:06:01.702Z,2.36
2018-02-22T22:08:29.811Z,2.36
2018-02-22T22:10:57.916Z,2.29
2018-02-22T22:13:26.035Z,2.20
2018-02-22T22:15:54.152Z,2.15
2018-02-22T22:18:22.280Z,2.09
2018-02-22T22:20:50.392Z,2.08
2018-02-22T22:23:18.515Z,2.13
2018-02-22T22:25:46.644Z,1.95
2018-02-22T22:28:14.775Z,2.14
2018-02-22T22:30:42.893Z,2.14
2018-02-22T22:33:10.999Z,2.11
2018-02-22T22:35:39.124Z,2.07
2018-02-22T22:38:07.232Z,1.93
2018-02-22T22:40:35.369Z,1.95
2018-02-22T22:43:03.484Z,2.05
2018-02-22T22:45:31.600Z,2.01
2018-02-22T22:47:59.715Z,1.96
2018-02-22T22:50:27.837Z,1.82
2018-02-22T22:52:55.967Z,1.70
2018-02-22T22:55:24.077Z,1.68
2018-02-22T22:57:52.275Z,1.64
2018-02-22T23:00:22.325Z,1.63
2018-02-22T23:02:50.455Z,1.74
2018-02-22T23:05:18.593Z,1.58
2018-02-22T23:07:46.715Z,1.61
2018-02-22T23:10:14.833Z,1.49
2018-02-22T23:12:42.961Z,1.46
2018-02-22T23:15:11.076Z,1.37
2018-02-22T23:17:39.191Z,1.39
2018-02-22T23:20:07.329Z,1.40
2018-02-22T23:22:35.431Z,1.46
2018-02-22T23:25:03.535Z,1.51
2018-02-22T23:27:31.709Z,1.41
2018-02-22T23:29:59.822Z,1.47
2018-02-22T23:32:27.959Z,1.47
2018-02-22T23:34:56.086Z,1.48
2018-02-22T23:37:24.193Z,1.47
2018-02-22T23:39:52.330Z,1.47
2018-02-22T23:42:23.823Z,1.35
2018-02-22T23:44:51.956Z,1.34
2018-02-22T23:47:20.067Z,1.30
2018-02-22T23:49:48.176Z,1.27
2018-02-22T23:52:16.325Z,1.29
2018-02-22T23:54:44.441Z,1.29
2018-02-22T23:57:12.565Z,1.15
2018-02-22T23:59:40.691Z,1.20
